.
WxDataArchive / Data Records for 2012-06-12
2012-06-11 June 2012 2012-06-13

Data Records for Tuesday, 12 June 2012

Time	Temp	Chill	HIndex	Humid	Dewpt	 Wind 	HiWind	WindDir	Rain 	Barom 
-----	----	-----	------	-----	-----	------	------	-------	-----	----- 
00:00	74.4	74.4	74.4	75	65.9	0	0	---	0.00	29.833 
00:05	74.2	74.2	74.2	76	66.1	0	1	315	0.00	29.833 
00:10	74.0	74.0	74.0	76	65.9	0	0	---	0.00	29.833 
00:15	73.9	73.9	73.9	77	66.2	0	0	---	0.00	29.833 
00:20	73.7	73.7	73.7	77	66.0	0	1	315	0.00	29.833 
00:25	73.5	73.5	73.5	78	66.2	0	0	---	0.00	29.833 
00:30	73.5	73.5	73.5	78	66.2	0	0	---	0.00	29.833 
00:35	73.3	73.3	73.3	79	66.4	0	0	---	0.00	29.833 
00:40	73.2	73.2	73.2	80	66.6	0	0	---	0.00	29.833 
00:45	73.2	73.2	73.2	80	66.6	0	0	---	0.00	29.835 
00:50	73.0	73.0	73.0	81	66.8	0	0	---	0.00	29.835 
00:55	72.8	72.8	72.8	82	67.0	0	1	315	0.00	29.835 
01:00	72.8	72.8	72.8	82	67.0	0	0	---	0.00	29.835 
01:05	72.8	72.8	72.8	83	67.3	0	1	315	0.00	29.835 
01:10	72.7	72.7	72.7	83	67.2	0	0	---	0.00	29.835 
01:15	72.5	72.5	72.5	83	67.0	0	0	---	0.00	29.832 
01:20	72.5	72.5	72.5	84	67.4	0	0	---	0.00	29.832 
01:25	72.3	72.3	72.3	84	67.2	0	0	---	0.00	29.832 
01:30	72.1	72.1	72.1	84	67.0	0	0	---	0.00	29.830 
01:35	72.0	72.0	72.0	84	66.9	0	0	---	0.00	29.830 
01:40	71.8	71.8	71.8	85	67.0	0	0	---	0.00	29.830 
01:45	71.6	71.6	71.6	85	66.8	0	0	---	0.00	29.828 
01:50	71.5	71.5	71.5	85	66.7	0	0	---	0.00	29.828 
01:55	71.3	71.3	71.3	86	66.9	0	0	---	0.00	29.828 
02:00	71.1	71.1	71.1	86	66.7	0	0	---	0.00	29.826 
02:05	71.1	71.1	71.1	86	66.7	0	0	---	0.00	29.826 
02:10	71.1	71.1	71.1	87	67.0	0	0	---	0.00	29.826 
02:15	70.9	70.9	70.9	87	66.8	0	0	---	0.00	29.821 
02:20	70.9	70.9	70.9	87	66.8	0	1	315	0.00	29.821 
02:25	70.9	70.9	70.9	87	66.8	0	0	---	0.00	29.821 
02:30	70.9	70.9	70.9	87	66.8	0	1	315	0.00	29.818 
02:35	70.9	70.9	70.9	86	66.5	0	1	315	0.00	29.818 
02:40	70.9	70.9	70.9	86	66.5	0	1	315	0.00	29.818 
02:45	70.9	70.9	70.9	85	66.2	0	1	315	0.00	29.813 
02:50	71.1	71.1	71.1	84	66.0	0	2	315	0.00	29.813 
02:55	71.1	71.1	71.1	83	65.7	0	1	315	0.00	29.813 
03:00	71.3	71.3	71.3	82	65.5	0	2	315	0.00	29.810 
03:05	71.5	71.5	71.5	81	65.4	0	2	315	0.00	29.810 
03:10	71.5	71.5	71.5	80	65.0	0	2	315	0.00	29.810 
03:15	71.5	71.5	71.5	80	65.0	0	2	315	0.00	29.804 
03:20	71.5	71.5	71.5	80	65.0	0	2	315	0.00	29.804 
03:25	71.5	71.5	71.5	80	65.0	0	2	315	0.00	29.804 
03:30	71.5	71.5	71.5	79	64.6	0	2	315	0.00	29.806 
03:35	71.3	71.3	71.3	79	64.4	0	1	315	0.00	29.806 
03:40	71.3	71.3	71.3	79	64.4	0	2	315	0.00	29.806 
03:45	71.1	71.1	71.1	79	64.2	0	2	315	0.00	29.806 
03:50	71.1	71.1	71.1	80	64.6	0	2	315	0.00	29.806 
03:55	71.1	71.1	71.1	80	64.6	0	2	315	0.00	29.806 
04:00	70.9	70.9	70.9	80	64.4	0	2	315	0.00	29.812 
04:05	70.9	70.9	70.9	80	64.4	0	2	315	0.00	29.812 
04:10	70.8	70.8	70.8	80	64.3	0	2	315	0.00	29.812 
04:15	70.8	70.8	70.8	80	64.3	1	3	315	0.00	29.815 
04:20	70.8	70.8	70.8	80	64.3	1	3	315	0.00	29.815 
04:25	70.6	70.6	70.6	80	64.1	1	2	315	0.00	29.815 
04:30	70.4	70.4	70.4	80	63.9	0	2	315	0.00	29.820 
04:35	70.4	70.4	70.4	80	63.9	0	2	315	0.00	29.820 
04:40	70.3	70.3	70.3	80	63.8	0	2	315	0.00	29.820 
04:45	70.3	70.3	70.3	80	63.8	0	2	315	0.00	29.821 
04:50	70.1	70.1	70.1	80	63.6	0	3	315	0.00	29.821 
04:55	70.1	70.1	70.1	80	63.6	1	3	315	0.00	29.821 
05:00	70.1	70.1	70.1	80	63.6	1	3	315	0.00	29.827 
05:05	69.9	69.9	69.9	81	63.8	1	3	315	0.00	29.827 
05:10	69.9	69.9	69.9	80	63.4	1	3	315	0.00	29.827 
05:15	69.9	69.9	69.9	81	63.8	1	3	315	0.00	29.831 
05:20	69.8	69.8	69.8	81	63.7	1	3	315	0.00	29.831 
05:25	69.8	69.8	69.8	81	63.7	1	3	292	0.00	29.831 
05:30	69.6	69.6	69.6	81	63.5	2	3	292	0.00	29.835 
05:35	69.6	69.6	69.6	81	63.5	1	3	292	0.00	29.835 
05:40	69.4	69.4	69.4	81	63.3	1	2	292	0.00	29.835 
05:45	69.3	69.3	69.3	81	63.2	1	3	292	0.00	29.837 
05:50	69.1	69.1	69.1	81	63.0	2	4	292	0.00	29.837 
05:55	69.1	69.1	69.1	81	63.0	2	4	292	0.00	29.837 
06:00	69.1	69.1	69.1	81	63.0	2	4	292	0.00	29.845 
06:05	68.9	68.9	68.9	82	63.2	2	4	292	0.00	29.845 
06:10	68.9	68.9	68.9	81	62.8	2	4	292	0.00	29.845 
06:15	68.8	68.8	68.8	81	62.7	2	4	292	0.00	29.851 
06:20	68.8	68.8	68.8	81	62.7	2	4	292	0.00	29.851 
06:25	68.8	68.8	68.8	81	62.7	2	4	292	0.00	29.851 
06:30	68.8	68.8	68.8	81	62.7	1	3	292	0.00	29.858 
06:35	68.8	68.8	68.8	80	62.4	2	3	292	0.00	29.858 
06:40	68.8	68.8	68.8	80	62.4	1	3	292	0.00	29.858 
06:45	68.8	68.8	68.8	79	62.0	1	3	315	0.00	29.863 
06:50	68.9	68.9	68.9	78	61.7	1	3	315	0.00	29.863 
06:55	68.9	68.9	68.9	77	61.4	1	4	315	0.00	29.863 
07:00	68.9	68.9	68.9	76	61.0	1	4	292	0.00	29.872 
07:05	68.9	68.9	68.9	74	60.3	2	4	292	0.00	29.872 
07:10	68.9	68.9	68.9	72	59.5	1	3	292	0.00	29.872 
07:15	68.9	68.9	68.9	70	58.7	1	4	292	0.00	29.880 
07:20	68.9	68.9	68.9	69	58.3	1	3	292	0.00	29.880 
07:25	69.1	69.1	69.1	68	58.1	1	3	292	0.00	29.880 
07:30	69.3	69.3	69.3	65	57.0	2	5	270	0.00	29.881 
07:35	69.4	69.4	69.4	64	56.7	1	4	270	0.00	29.881 
07:40	69.6	69.6	69.6	62	56.0	1	4	270	0.00	29.881 
07:45	69.8	69.8	69.8	62	56.2	1	4	270	0.00	29.884 
07:50	69.9	69.9	69.9	61	55.8	2	4	315	0.00	29.884 
07:55	70.1	70.1	70.1	61	56.0	2	4	315	0.00	29.884 
08:00	70.1	70.1	70.1	60	55.6	2	4	315	0.00	29.885 
08:05	70.1	70.1	70.1	59	55.1	3	5	270	0.00	29.885 
08:10	70.1	70.1	70.1	59	55.1	2	5	292	0.00	29.885 
08:15	70.3	70.3	70.3	57	54.3	2	5	292	0.00	29.894 
08:20	70.3	70.3	70.3	56	53.8	2	5	292	0.00	29.894 
08:25	70.4	70.4	70.4	55	53.4	1	4	315	0.00	29.894 
08:30	70.8	70.8	70.8	55	53.8	1	3	0	0.00	29.889 
08:35	70.8	70.8	70.8	55	53.8	2	6	315	0.00	29.889 
08:40	70.9	70.9	70.9	55	53.9	2	5	292	0.00	29.889 
08:45	71.1	71.1	71.1	54	53.6	1	3	292	0.00	29.888 
08:50	71.1	71.1	71.1	53	53.1	2	4	338	0.00	29.888 
08:55	70.9	70.9	70.9	52	52.4	2	6	292	0.00	29.888 
09:00	70.9	70.9	70.9	54	53.4	1	6	292	0.00	29.891 
09:05	71.1	71.1	71.1	53	53.1	2	6	338	0.00	29.891 
09:10	71.3	71.3	71.3	54	53.8	2	4	292	0.00	29.891 
09:15	71.5	71.5	71.5	52	52.9	2	5	315	0.00	29.899 
09:20	71.5	71.5	71.5	51	52.4	2	5	315	0.00	29.899 
09:25	71.8	71.8	71.8	51	52.7	2	5	270	0.00	29.899 
09:30	72.0	72.0	72.0	50	52.3	2	7	270	0.00	29.900 
09:35	71.8	71.8	71.8	50	52.1	2	6	270	0.00	29.900 
09:40	72.0	72.0	72.0	51	52.9	2	5	292	0.00	29.900 
09:45	72.3	72.3	72.3	50	52.6	1	5	292	0.00	29.898 
09:50	72.7	72.7	72.7	50	53.0	1	5	68	0.00	29.898 
09:55	72.8	72.8	72.8	49	52.5	1	3	270	0.00	29.898 
10:00	72.8	72.8	72.8	49	52.5	3	10	292	0.00	29.895 
10:05	72.7	72.7	72.7	49	52.4	2	4	292	0.00	29.895 
10:10	73.2	73.2	73.2	50	53.4	1	3	292	0.00	29.895 
10:15	73.7	73.7	73.7	48	52.8	2	4	292	0.00	29.908 
10:20	74.0	74.0	74.0	46	51.9	2	5	315	0.00	29.908 
10:25	73.5	73.5	73.5	47	52.0	3	5	292	0.00	29.908 
10:30	73.5	73.5	73.5	47	52.0	3	5	270	0.00	29.906 
10:35	73.9	73.9	73.9	48	53.0	2	4	292	0.00	29.906 
10:40	73.9	73.9	73.9	46	51.8	3	6	315	0.00	29.906 
10:45	73.9	73.9	73.9	46	51.8	3	9	270	0.00	29.915 
10:50	73.9	73.9	73.9	47	52.4	1	3	338	0.00	29.915 
10:55	74.2	74.2	74.2	44	50.9	2	5	270	0.00	29.915 
11:00	74.9	74.9	74.9	46	52.7	1	5	292	0.00	29.915 
11:05	75.1	75.1	77.6	45	52.3	2	6	270	0.00	29.915 
11:10	75.1	75.1	77.6	45	52.3	2	5	315	0.00	29.915 
11:15	75.1	75.1	77.6	44	51.7	3	7	315	0.00	29.920 
11:20	75.1	75.1	77.6	45	52.3	2	5	315	0.00	29.920 
11:25	75.3	75.3	77.7	44	51.9	4	7	270	0.00	29.920 
11:30	75.4	75.4	77.7	45	52.6	2	4	248	0.00	29.919 
11:35	75.4	75.4	77.7	43	51.3	3	6	270	0.00	29.919 
11:40	75.6	75.6	77.8	43	51.5	3	5	270	0.00	29.919 
11:45	75.6	75.6	77.7	42	50.9	3	6	315	0.00	29.924 
11:50	75.8	75.8	77.8	43	51.7	3	5	270	0.00	29.924 
11:55	75.6	75.6	77.8	43	51.5	2	9	338	0.00	29.924 
12:00	75.4	75.4	77.6	39	48.7	3	8	315	0.00	29.929 
12:05	75.8	75.8	77.7	39	49.1	3	10	270	0.00	29.929 
12:10	75.6	75.6	77.6	38	48.2	4	7	315	0.00	29.929 
12:15	76.0	76.0	77.7	37	47.8	2	5	292	0.00	29.928 
12:20	76.0	76.0	77.7	38	48.5	2	7	315	0.00	29.928 
12:25	76.1	76.1	77.7	36	47.2	3	5	315	0.00	29.928 
12:30	76.3	76.3	77.8	38	48.8	4	9	270	0.00	29.935 
12:35	76.5	76.5	77.8	36	47.5	3	6	270	0.00	29.935 
12:40	76.8	76.8	77.7	31	43.9	3	6	270	0.00	29.935 
12:45	76.5	76.5	77.5	30	42.7	4	7	315	0.00	29.933 
12:50	77.0	77.0	77.6	29	42.3	3	5	270	0.00	29.933 
12:55	77.2	77.2	77.6	27	40.6	3	6	270	0.00	29.933 
13:00	77.4	77.4	77.6	26	39.8	3	10	315	0.00	29.933 
13:05	77.2	77.2	77.6	27	40.6	3	7	315	0.00	29.933 
13:10	77.4	77.4	77.6	27	40.8	3	7	315	0.00	29.933 
13:15	77.2	77.2	77.6	27	40.6	3	5	315	0.00	29.934 
13:20	77.6	77.6	77.7	27	41.0	3	10	292	0.00	29.934 
13:25	77.6	77.6	77.7	27	41.0	3	6	270	0.00	29.934 
13:30	77.6	77.6	77.8	28	41.9	3	7	270	0.00	29.935 
13:35	78.1	78.1	78.0	27	41.4	3	6	270	0.00	29.935 
13:40	77.9	77.9	77.9	27	41.2	4	8	270	0.00	29.935 
13:45	77.6	77.6	77.6	25	39.0	4	9	315	0.00	29.935 
13:50	77.7	77.7	77.7	26	40.1	4	7	270	0.00	29.935 
13:55	77.7	77.7	77.7	26	40.1	4	8	270	0.00	29.935 
14:00	77.9	77.9	77.7	25	39.2	3	6	270	0.00	29.936 
14:05	78.1	78.1	77.8	24	38.4	4	7	270	0.00	29.936 
14:10	78.6	78.6	78.1	25	39.8	3	5	315	0.00	29.936 
14:15	78.8	78.8	78.2	25	40.0	3	5	270	0.00	29.934 
14:20	78.5	78.5	78.0	24	38.7	4	8	315	0.00	29.934 
14:25	78.3	78.3	77.9	25	39.6	3	6	270	0.00	29.934 
14:30	78.6	78.6	78.0	24	38.8	4	7	270	0.00	29.935 
14:35	78.8	78.8	78.1	24	38.9	4	8	270	0.00	29.935 
14:40	78.6	78.6	78.1	25	39.8	4	7	270	0.00	29.935 
14:45	78.8	78.8	78.3	26	41.0	2	6	270	0.00	29.934 
14:50	79.0	79.0	78.3	25	40.2	4	7	270	0.00	29.934 
14:55	79.0	79.0	78.4	26	41.2	3	7	315	0.00	29.934 
15:00	79.4	79.4	78.7	27	42.5	2	9	270	0.00	29.933 
15:05	79.2	79.2	78.4	24	39.3	4	12	292	0.00	29.933 
15:10	79.2	79.2	78.4	25	40.3	3	10	248	0.00	29.933 
15:15	79.4	79.4	78.5	25	40.5	5	10	270	0.00	29.937 
15:20	78.8	78.8	78.2	25	40.0	4	9	315	0.00	29.937 
15:25	78.5	78.5	78.1	26	40.7	4	10	315	0.00	29.937 
15:30	78.5	78.5	78.2	27	41.7	4	10	270	0.00	29.934 
15:35	79.0	79.0	78.4	27	42.1	3	7	270	0.00	29.934 
15:40	79.2	79.2	78.6	28	43.3	3	7	292	0.00	29.934 
15:45	79.0	79.0	78.5	28	43.1	4	12	270	0.00	29.934 
15:50	79.0	79.0	78.5	28	43.1	3	7	270	0.00	29.934 
15:55	78.8	78.8	78.4	28	42.9	3	6	270	0.00	29.934 
16:00	79.0	79.0	78.6	30	44.9	3	6	270	0.00	29.935 
16:05	78.6	78.6	78.5	31	45.4	3	6	315	0.00	29.935 
16:10	78.5	78.5	78.4	30	44.5	3	7	292	0.00	29.935 
16:15	78.3	78.3	78.3	31	45.2	4	7	292	0.00	29.936 
16:20	78.6	78.6	78.5	31	45.4	3	5	270	0.00	29.936 
16:25	78.5	78.5	78.4	31	45.3	3	11	292	0.00	29.936 
16:30	78.1	78.1	78.3	32	45.8	2	4	292	0.00	29.937 
16:35	78.1	78.1	78.2	30	44.1	3	7	270	0.00	29.937 
16:40	77.4	77.4	77.8	30	43.5	3	6	315	0.00	29.937 
16:45	76.8	76.8	77.6	30	43.0	3	7	292	0.00	29.948 
16:50	77.2	77.2	77.6	28	41.6	3	9	292	0.00	29.948 
16:55	77.0	77.0	77.6	29	42.3	4	9	292	0.00	29.948 
17:00	76.8	76.8	77.6	30	43.0	3	7	270	0.00	29.952 
17:05	77.0	77.0	77.6	29	42.3	3	7	315	0.00	29.952 
17:10	76.7	76.7	77.4	28	41.1	3	7	292	0.00	29.952 
17:15	76.3	76.3	77.3	29	41.7	4	10	292	0.00	29.956 
17:20	76.0	76.0	77.2	29	41.4	3	9	292	0.00	29.956 
17:25	76.0	76.0	77.2	29	41.4	4	10	270	0.00	29.956 
17:30	75.8	75.8	77.1	29	41.3	4	7	292	0.00	29.958 
17:35	75.6	75.6	77.1	30	42.0	3	6	315	0.00	29.958 
17:40	75.6	75.6	77.1	29	41.1	3	6	292	0.00	29.958 
17:45	75.6	75.6	77.0	28	40.2	3	6	292	0.00	29.959 
17:50	75.4	75.4	76.8	27	39.1	3	7	315	0.00	29.959 
17:55	75.3	75.3	76.8	27	39.0	4	7	315	0.00	29.959 
18:00	74.9	74.9	74.9	26	37.7	4	9	338	0.00	29.968 
18:05	74.6	74.6	74.6	28	39.3	3	7	270	0.00	29.968 
18:10	74.6	74.6	74.6	30	41.1	3	6	270	0.00	29.968 
18:15	74.6	74.6	74.6	30	41.1	3	9	292	0.00	29.970 
18:20	74.4	74.4	74.4	29	40.1	3	8	292	0.00	29.970 
18:25	74.4	74.4	74.4	29	40.1	3	7	292	0.00	29.970 
18:30	73.9	73.9	73.9	28	38.7	4	9	292	0.00	29.978 
18:35	73.5	73.5	73.5	29	39.3	4	10	292	0.00	29.978 
18:40	73.5	73.5	73.5	28	38.4	4	10	292	0.00	29.978 
18:45	73.3	73.3	73.3	30	40.0	3	9	292	0.00	29.987 
18:50	73.2	73.2	73.2	30	39.9	3	7	292	0.00	29.987 
18:55	73.2	73.2	73.2	31	40.7	3	10	292	0.00	29.987 
19:00	73.2	73.2	73.2	33	42.4	2	6	315	0.00	29.988 
19:05	72.8	72.8	72.8	31	40.4	3	6	315	0.00	29.988 
19:10	72.7	72.7	72.7	32	41.1	3	5	292	0.00	29.988 
19:15	72.3	72.3	72.3	32	40.8	3	8	292	0.00	29.992 
19:20	72.3	72.3	72.3	33	41.6	3	7	292	0.00	29.992 
19:25	72.1	72.1	72.1	34	42.2	2	5	315	0.00	29.992 
19:30	72.0	72.0	72.0	34	42.1	3	12	315	0.00	29.997 
19:35	71.5	71.5	71.5	34	41.6	2	5	315	0.00	29.997 
19:40	70.9	70.9	70.9	35	41.9	2	6	292	0.00	29.997 
19:45	70.8	70.8	70.8	35	41.8	1	4	292	0.00	30.006 
19:50	70.4	70.4	70.4	35	41.4	2	4	292	0.00	30.006 
19:55	70.3	70.3	70.3	35	41.3	3	5	292	0.00	30.006 
20:00	69.9	69.9	69.9	37	42.4	2	6	292	0.00	30.013 
20:05	69.8	69.8	69.8	37	42.3	2	6	270	0.00	30.013 
20:10	69.6	69.6	69.6	37	42.2	1	4	292	0.00	30.013 
20:15	69.4	69.4	69.4	37	42.0	1	3	0	0.00	30.019 
20:20	69.1	69.1	69.1	38	42.4	2	5	270	0.00	30.019 
20:25	68.6	68.6	68.6	39	42.6	2	7	315	0.00	30.019 
20:30	68.3	68.3	68.3	39	42.4	2	6	292	0.00	30.022 
20:35	67.9	67.9	67.9	40	42.7	1	5	315	0.00	30.022 
20:40	67.8	67.8	67.8	40	42.6	1	7	292	0.00	30.022 
20:45	67.4	67.4	67.4	41	42.9	1	5	292	0.00	30.024 
20:50	67.1	67.1	67.1	42	43.2	1	4	338	0.00	30.024 
20:55	66.9	66.9	66.9	42	43.1	1	3	292	0.00	30.024 
21:00	66.6	66.6	66.6	43	43.4	1	3	292	0.00	30.023 
21:05	66.3	66.3	66.3	43	43.1	1	4	292	0.00	30.023 
21:10	66.1	66.1	66.1	44	43.5	1	3	292	0.00	30.023 
21:15	66.0	66.0	66.0	44	43.5	1	4	315	0.00	30.024 
21:20	65.6	65.6	65.6	45	43.7	1	2	315	0.00	30.024 
21:25	65.5	65.5	65.5	45	43.6	0	2	315	0.00	30.024 
21:30	65.2	65.2	65.2	46	43.9	0	2	315	0.00	30.036 
21:35	65.0	65.0	65.0	46	43.7	0	1	315	0.00	30.036 
21:40	64.5	64.5	64.5	47	43.8	0	3	315	0.00	30.036 
21:45	64.3	64.3	64.3	48	44.2	0	2	315	0.00	30.039 
21:50	64.2	64.2	64.2	48	44.1	0	1	315	0.00	30.039 
21:55	64.0	64.0	64.0	49	44.5	0	1	315	0.00	30.039 
22:00	63.7	63.7	63.7	49	44.2	0	1	315	0.00	30.043 
22:05	63.5	63.5	63.5	50	44.5	0	0	---	0.00	30.043 
22:10	63.2	63.2	63.2	50	44.2	0	1	315	0.00	30.043 
22:15	63.1	63.1	63.1	50	44.2	0	1	315	0.00	30.047 
22:20	62.9	62.9	62.9	51	44.5	0	1	315	0.00	30.047 
22:25	62.6	62.6	62.6	51	44.2	0	0	---	0.00	30.047 
22:30	62.4	62.4	62.4	52	44.5	0	1	315	0.00	30.055 
22:35	62.3	62.3	62.3	52	44.4	0	0	---	0.00	30.055 
22:40	62.1	62.1	62.1	53	44.8	0	0	---	0.00	30.055 
22:45	61.8	61.8	61.8	53	44.5	0	0	---	0.00	30.063 
22:50	61.5	61.5	61.5	54	44.7	0	0	---	0.00	30.063 
22:55	61.2	61.2	61.2	55	44.9	0	0	---	0.00	30.063 
23:00	60.7	60.7	60.7	56	44.9	0	0	---	0.00	30.065 
23:05	60.4	60.4	60.4	56	44.6	0	0	---	0.00	30.065 
23:10	60.4	60.4	60.4	56	44.6	0	0	---	0.00	30.065 
23:15	60.5	60.5	60.5	56	44.7	0	1	315	0.00	30.069 
23:20	60.5	60.5	60.5	56	44.7	0	0	---	0.00	30.069 
23:25	60.5	60.5	60.5	56	44.7	0	0	---	0.00	30.069 
23:30	60.4	60.4	60.4	56	44.6	0	0	---	0.00	30.071 
23:35	60.2	60.2	60.2	57	44.9	0	0	---	0.00	30.071 
23:40	59.9	59.9	59.9	58	45.1	0	0	---	0.00	30.071 
23:45	59.8	59.8	59.8	58	45.0	0	0	---	0.00	30.073 
23:50	59.6	59.6	59.6	58	44.8	0	0	---	0.00	30.073 
23:55	59.6	59.6	59.6	58	44.8	0	0	---	0.00	30.073 

CoCoRaHS
IN-AL-39
A2 Web Hosting
Creative Commons License
GoDaddy
search engine by freefind advanced

loaded 2018-11-15 19:03:15 • last modified 2010-11-18 10:43:29
Privacy PolicyDisclaimer
• wx.awcolley.com is powered by PmWiki v.2002016 •
• all content (unless otherwise noted) © 2018 A W Colley